Yaounde, Cameroon

10:36 AM WAT on February 08, 2016 (GMT +0100)
Nsimalen | | Change Station
CLOSE
Current Station
Airport
Location: Yaounde,
Elevation: 2493 ft
Nearby Weather Stations

Elev 2493 ft 3.83 °N, 11.52 °E | Updated 36 minutes ago

Mostly Cloudy
Mostly Cloudy
79 °F
Feels Like 79 °F
N
6
Wind Variable Wind from WNW

Today
High -- | Low -- °F
--% Chance of Precip.
Yesterday
High -- | Low -- °F
Precip. -- in
Pressure 30.12 in
Visibility 3.7 miles
Clouds Mostly Cloudy 1600 ft
Dew Point 68 °F
Humidity 69%
Rainfall 0.00 in
Snow Depth Not available.
6:28 AM 6:27 PM
Waning Crescent, 0% visible
METAR FKYS 080900Z 30005KT 220V030 6000 BKN016 26/20 Q1020 NOSIG
Pressure 30.12 in
Visibility 3.7 miles
Clouds Mostly Cloudy 1600 ft
Dew Point 68 °F
Humidity 69%
Rainfall 0.00 in
Snow Depth Not available.
6:28 AM 6:27 PM
Waning Crescent, 0% visible
METAR FKYS 080900Z 30005KT 220V030 6000 BKN016 26/20 Q1020 NOSIG

10-Day Weather Forecast

No radar image for this location.
×

Almanac

Astronomy

Feb. 08, 2016 Rise Set
Actual Time
Civil Twilight
Nautical Twilight
Astronomical Twilight
Moon
Length of Visible Light
Length of Day
Tomorrow will be .
, % of the Moon is Illuminated

Today's Extremes

Country Highs Country Lows

Community

WunderPhotos

Upload Photos

1,891,412 photos uploaded!

WunderBlog® & News

Nearby

Air Quality

  Air Quality AQ Index Pollutant
Not available.

Snow Depth

Station Depth Elevation

Earthquake Activity

City Distance Mag. Time & Date
Minimum magnitude displayed is 2.5.

Coastal Water Temperatures

Place Temperature

Stations

Nearby Weather Stations

Station Location Temp. Windchill Dew Point Humidity Wind Precip. Elev Updated Type